KAFF/AFF METAR and TAF weather

Enter ICAO airport designator
Station Type Date Time Source
KAFF METAR 2022/01/29 04:58 UTC NOAA

KAFF 290458Z AUTO 01011KT 10SM CLR M07/M13 A3029 RMK AO2 SLP305 T10731126


Station Type Date Time Source
KAFF Decoded METAR 2022/01/29 04:58 UTC NOAA

Air Force Academy, CO, United States (KAFF) 38-58N 104-49W 1999M
Jan 28, 2022 - 11:58 PM EST / 2022.01.29 0458 UTC
Wind: from the N (010 degrees) at 13 MPH (11 KT):0
Visibility: 10 mile(s):0
Sky conditions: clear
Temperature: 18.9 F (-7.3 C)
Windchill: 5 F (-15 C):1
Dew Point: 9.3 F (-12.6 C)
Relative Humidity: 65%
Pressure (altimeter): 30.29 in. Hg (1025 hPa)
ob: KAFF 290458Z AUTO 01011KT 10SM CLR M07/M13 A3029 RMK AO2 SLP305 T10731126
cycle: 5

Station Type Date Time Source
KAFF TAF 2022/01/28 22:51 UTC NOAA

TAF TAF
AMD KAFF 282242Z 2822/3002 16010G15KT 9999 SKC QNH3026INS
BECMG 2907/2908 01009KT 9999 SKC 520205 QNH3024INS WND 300V040 ROTOR CONDS EXIST
BECMG 2914/2915 VRB06KT 9999 SKC QNH3023INS
BECMG 2917/2918 15009KT 9999 SKC QNH3013INS TX07/2822Z TNM07/2910Z LAST NO
AMDS AFT 2900 NEXT 2912

Example: see airport list